createdAt,value
2018-07-24T00:02:21.832Z,63.10
2018-07-24T00:04:50.315Z,63.10
2018-07-24T00:07:18.781Z,63.50
2018-07-24T00:09:47.255Z,63.70
2018-07-24T00:12:15.814Z,63.80
2018-07-24T00:14:44.393Z,64.00
2018-07-24T00:17:12.926Z,64.00
2018-07-24T00:19:41.383Z,64.00
2018-07-24T00:22:09.907Z,64.10
2018-07-24T00:24:38.486Z,64.10
2018-07-24T00:27:06.938Z,64.40
2018-07-24T00:29:35.389Z,64.60
2018-07-24T00:32:03.877Z,64.90
2018-07-24T00:34:32.482Z,65.10
2018-07-24T00:37:00.952Z,65.40
2018-07-24T00:39:29.418Z,65.40
2018-07-24T00:41:57.846Z,65.30
2018-07-24T00:44:26.347Z,65.20
2018-07-24T00:46:54.837Z,65.20
2018-07-24T00:49:23.311Z,65.30
2018-07-24T00:51:51.741Z,65.30
2018-07-24T00:54:20.253Z,65.60
2018-07-24T00:56:48.737Z,65.80
2018-07-24T00:59:17.236Z,66.10
2018-07-24T01:01:45.733Z,66.20
2018-07-24T01:04:14.308Z,66.30
2018-07-24T01:06:42.777Z,66.50
2018-07-24T01:09:12.029Z,66.50
2018-07-24T01:11:41.025Z,66.70
2018-07-24T01:14:10.110Z,66.70
2018-07-24T01:16:38.562Z,66.80
2018-07-24T01:19:07.144Z,66.80
2018-07-24T01:24:03.861Z,66.50
2018-07-24T01:26:32.327Z,66.50
2018-07-24T01:29:00.818Z,66.60
2018-07-24T01:31:29.282Z,66.50
2018-07-24T01:33:58.484Z,66.70
2018-07-24T01:36:27.078Z,66.90
2018-07-24T01:38:55.568Z,67.10
2018-07-24T01:41:24.043Z,67.20
2018-07-24T01:43:52.591Z,67.20
2018-07-24T01:46:21.058Z,67.10
2018-07-24T01:48:49.562Z,67.20
2018-07-24T01:51:18.046Z,67.20
2018-07-24T01:53:46.588Z,67.30
2018-07-24T01:56:15.045Z,67.60
2018-07-24T01:58:43.507Z,68.00
2018-07-24T02:01:11.968Z,68.20
2018-07-24T02:03:40.552Z,68.30
2018-07-24T02:06:09.027Z,68.40
2018-07-24T02:08:37.479Z,68.40
2018-07-24T02:11:05.964Z,68.60
2018-07-24T02:13:34.466Z,68.80
2018-07-24T02:16:02.938Z,69.00
2018-07-24T02:20:59.568Z,69.20
2018-07-24T02:23:29.110Z,69.20
2018-07-24T02:25:57.668Z,69.30
2018-07-24T02:28:26.149Z,69.50
2018-07-24T02:30:54.618Z,69.50
2018-07-24T02:33:23.121Z,69.60
2018-07-24T02:35:51.650Z,69.60
2018-07-24T02:38:20.139Z,69.70
2018-07-24T02:40:48.620Z,69.80
2018-07-24T02:43:17.172Z,69.60
2018-07-24T02:45:45.681Z,69.60
2018-07-24T02:48:14.139Z,69.60
2018-07-24T02:50:42.653Z,69.60
2018-07-24T02:53:11.190Z,69.70
2018-07-24T02:55:39.681Z,69.90
2018-07-24T02:58:08.155Z,69.80
2018-07-24T03:00:36.606Z,70.10
2018-07-24T03:03:05.165Z,70.30
2018-07-24T03:05:33.598Z,70.50
2018-07-24T03:08:02.063Z,70.50
2018-07-24T03:10:30.524Z,70.50
2018-07-24T03:12:59.004Z,70.50
2018-07-24T03:15:27.532Z,70.60
2018-07-24T03:17:55.973Z,70.60
2018-07-24T03:20:24.546Z,70.60
2018-07-24T03:22:53.094Z,70.90
2018-07-24T03:25:21.535Z,71.00
2018-07-24T03:27:50.001Z,70.90
2018-07-24T03:30:18.499Z,70.80
2018-07-24T03:32:47.017Z,70.80
2018-07-24T03:35:15.481Z,70.90
2018-07-24T03:37:43.925Z,71.00
2018-07-24T03:40:12.368Z,71.30
2018-07-24T03:42:40.930Z,71.30
2018-07-24T03:47:37.563Z,71.70
2018-07-24T03:50:06.037Z,71.80
2018-07-24T03:52:34.529Z,71.90
2018-07-24T03:55:02.975Z,72.00
2018-07-24T03:57:31.409Z,72.00
2018-07-24T03:59:59.883Z,72.00
2018-07-24T04:02:28.428Z,72.10
2018-07-24T04:04:56.823Z,72.20
2018-07-24T04:07:25.294Z,72.20
2018-07-24T04:09:53.751Z,72.30
2018-07-24T04:12:22.248Z,72.30
2018-07-24T04:14:50.799Z,72.40
2018-07-24T04:17:19.266Z,72.60
2018-07-24T04:19:47.733Z,72.70
2018-07-24T04:22:16.263Z,72.90
2018-07-24T04:24:44.824Z,73.00
2018-07-24T04:27:13.290Z,73.20
2018-07-24T04:29:41.745Z,73.40
2018-07-24T04:32:10.384Z,73.40
2018-07-24T04:34:38.962Z,73.40
2018-07-24T04:37:07.464Z,73.50
2018-07-24T04:39:35.925Z,73.60
2018-07-24T04:42:04.398Z,73.60
2018-07-24T04:47:01.050Z,73.70
2018-07-24T04:51:57.687Z,73.80
2018-07-24T04:54:26.214Z,73.70
2018-07-24T04:56:54.669Z,74.60
2018-07-24T04:59:23.136Z,73.90
2018-07-24T05:01:51.590Z,73.90
2018-07-24T05:04:20.146Z,73.80
2018-07-24T05:06:48.625Z,73.70
2018-07-24T05:09:17.114Z,73.70
2018-07-24T05:11:45.572Z,73.60
2018-07-24T05:14:14.057Z,73.40
2018-07-24T05:16:43.058Z,73.30
2018-07-24T05:19:11.497Z,73.30
2018-07-24T05:21:39.981Z,73.20
2018-07-24T05:24:08.480Z,73.20
2018-07-24T05:26:36.965Z,72.90
2018-07-24T05:29:05.464Z,72.80
2018-07-24T05:31:33.975Z,72.50
2018-07-24T05:34:02.541Z,72.40
2018-07-24T05:36:31.384Z,72.20
2018-07-24T05:38:59.849Z,72.00
2018-07-24T05:41:28.338Z,71.80
2018-07-24T05:43:57.183Z,71.50
2018-07-24T05:46:25.746Z,71.30
2018-07-24T05:48:54.328Z,71.10
2018-07-24T05:51:22.767Z,70.80
2018-07-24T05:53:51.324Z,70.60
2018-07-24T05:56:19.774Z,70.30
2018-07-24T05:58:48.286Z,70.10
2018-07-24T06:01:16.806Z,69.80
2018-07-24T06:03:45.344Z,69.60
2018-07-24T06:06:13.859Z,69.10
2018-07-24T06:08:42.347Z,68.60
2018-07-24T06:11:10.842Z,68.20
2018-07-24T06:13:39.431Z,67.60
2018-07-24T06:16:07.932Z,66.90
2018-07-24T06:18:36.453Z,66.30
2018-07-24T06:21:05.007Z,65.80
2018-07-24T06:23:33.663Z,65.50
2018-07-24T06:26:02.254Z,65.40
2018-07-24T06:28:30.723Z,65.10
2018-07-24T06:30:59.211Z,65.00
2018-07-24T06:33:27.759Z,64.90
2018-07-24T06:35:56.216Z,64.60
2018-07-24T06:38:24.690Z,64.60
2018-07-24T06:40:53.221Z,64.60
2018-07-24T06:43:21.762Z,64.30
2018-07-24T06:45:50.350Z,64.20
2018-07-24T06:48:18.824Z,64.10
2018-07-24T06:50:47.311Z,63.80
2018-07-24T06:53:15.843Z,63.60
2018-07-24T06:55:44.430Z,63.50
2018-07-24T06:58:12.902Z,63.10
2018-07-24T07:00:41.394Z,62.40
2018-07-24T07:03:09.949Z,62.20
2018-07-24T07:05:38.552Z,62.00
2018-07-24T07:08:07.083Z,61.80
2018-07-24T07:10:35.631Z,61.60
2018-07-24T07:13:04.193Z,61.00
2018-07-24T07:15:32.802Z,60.50
2018-07-24T07:18:01.280Z,60.70
2018-07-24T07:20:29.814Z,60.60
2018-07-24T07:22:58.439Z,60.60
2018-07-24T07:25:27.021Z,60.60
2018-07-24T07:27:55.505Z,60.40
2018-07-24T07:30:23.988Z,60.40
2018-07-24T07:32:52.545Z,60.50
2018-07-24T07:35:21.046Z,60.50
2018-07-24T07:37:49.574Z,60.40
2018-07-24T07:40:18.103Z,60.30
2018-07-24T07:42:46.690Z,60.10
2018-07-24T07:45:15.245Z,59.70
2018-07-24T07:47:43.768Z,59.00
2018-07-24T07:50:12.239Z,58.40
2018-07-24T07:52:40.826Z,57.90
2018-07-24T07:55:09.317Z,57.90
2018-07-24T07:57:37.808Z,56.90
2018-07-24T08:00:06.578Z,56.70
2018-07-24T08:02:35.199Z,56.50
2018-07-24T08:05:03.727Z,56.30
2018-07-24T08:07:32.209Z,56.10
2018-07-24T08:10:00.807Z,55.90
2018-07-24T08:12:29.945Z,56.00
2018-07-24T08:14:58.534Z,55.30
2018-07-24T08:17:27.757Z,54.70
2018-07-24T08:19:56.231Z,54.60
2018-07-24T08:24:52.994Z,55.00
2018-07-24T08:29:49.786Z,54.50
2018-07-24T08:32:18.265Z,54.30
2018-07-24T08:34:46.867Z,54.50
2018-07-24T08:37:15.351Z,54.50
2018-07-24T08:39:43.821Z,54.50
2018-07-24T08:42:12.271Z,55.10
2018-07-24T08:44:40.770Z,55.10
2018-07-24T08:47:09.370Z,55.20
2018-07-24T08:49:37.901Z,54.80
2018-07-24T08:52:06.379Z,54.60
2018-07-24T08:54:35.034Z,54.60
2018-07-24T08:57:03.501Z,54.30
2018-07-24T08:59:31.974Z,54.60
2018-07-24T09:02:00.986Z,54.10
2018-07-24T09:04:29.634Z,54.20
2018-07-24T09:06:58.578Z,54.00
2018-07-24T09:09:27.084Z,53.90
2018-07-24T09:11:55.738Z,54.00
2018-07-24T09:14:24.294Z,53.80
2018-07-24T09:16:52.774Z,53.80
2018-07-24T09:19:21.294Z,53.80
2018-07-24T09:21:49.952Z,53.60
2018-07-24T09:24:18.485Z,53.80
2018-07-24T09:26:46.942Z,53.90
2018-07-24T09:29:16.808Z,53.90
2018-07-24T09:31:45.771Z,53.70
2018-07-24T09:34:14.342Z,53.80
2018-07-24T09:36:42.841Z,53.50
2018-07-24T09:41:41.539Z,53.00
2018-07-24T09:44:10.079Z,53.00
2018-07-24T09:46:38.570Z,52.80
2018-07-24T09:49:07.082Z,52.60
2018-07-24T09:51:35.656Z,52.60
2018-07-24T09:54:04.207Z,52.70
2018-07-24T09:56:33.912Z,52.60
2018-07-24T09:59:02.589Z,52.90
2018-07-24T10:01:34.119Z,52.60
2018-07-24T10:04:03.624Z,52.00
2018-07-24T10:06:33.254Z,51.60
2018-07-24T10:09:01.697Z,50.60
2018-07-24T10:11:30.148Z,49.80
2018-07-24T10:13:58.728Z,49.30
2018-07-24T10:16:27.238Z,49.20
2018-07-24T10:18:55.743Z,49.40
2018-07-24T10:21:24.149Z,49.40
2018-07-24T10:23:52.726Z,49.20
2018-07-24T10:26:21.165Z,48.80
2018-07-24T10:28:49.688Z,48.60
2018-07-24T10:31:18.142Z,48.20
2018-07-24T10:33:46.711Z,47.70
2018-07-24T10:36:15.186Z,47.00
2018-07-24T10:38:43.712Z,46.50
2018-07-24T10:43:40.466Z,45.60
2018-07-24T10:46:09.006Z,45.10
2018-07-24T10:48:37.463Z,44.50
2018-07-24T10:51:05.975Z,44.60
2018-07-24T10:53:34.575Z,44.50
2018-07-24T10:56:03.058Z,44.20
2018-07-24T10:58:31.558Z,44.10
2018-07-24T11:01:00.055Z,44.20
2018-07-24T11:03:28.522Z,43.90
2018-07-24T11:08:25.190Z,43.80
2018-07-24T11:10:53.724Z,43.70
2018-07-24T11:13:22.311Z,43.90
2018-07-24T11:15:50.746Z,44.00
2018-07-24T11:18:19.249Z,43.90
2018-07-24T11:20:47.798Z,43.80
2018-07-24T11:23:16.575Z,43.90
2018-07-24T11:25:44.918Z,43.80
2018-07-24T11:28:13.402Z,43.80
2018-07-24T11:30:41.879Z,44.50
2018-07-24T11:33:10.567Z,43.60
2018-07-24T11:35:39.067Z,43.70
2018-07-24T11:38:07.506Z,43.30
2018-07-24T11:40:36.022Z,43.30
2018-07-24T11:43:04.591Z,43.60
2018-07-24T11:45:33.051Z,43.60
2018-07-24T11:48:08.025Z,43.80
2018-07-24T11:50:36.560Z,43.70
2018-07-24T11:53:05.146Z,43.50
2018-07-24T11:55:33.686Z,43.40
2018-07-24T11:58:02.195Z,43.40
2018-07-24T12:00:30.788Z,43.30
2018-07-24T12:02:59.348Z,43.20
2018-07-24T12:05:27.794Z,43.10
2018-07-24T12:07:56.351Z,43.00
2018-07-24T12:10:24.797Z,43.00
2018-07-24T12:12:53.330Z,43.30
2018-07-24T12:15:21.805Z,43.40
2018-07-24T12:17:50.326Z,43.10
2018-07-24T12:20:18.802Z,42.60
2018-07-24T12:22:47.341Z,41.80
2018-07-24T12:25:15.891Z,41.30
2018-07-24T12:27:44.456Z,41.10
2018-07-24T12:30:13.015Z,41.20
2018-07-24T12:32:41.582Z,40.60
2018-07-24T12:35:10.054Z,39.80
2018-07-24T12:37:38.502Z,39.80
2018-07-24T12:40:07.248Z,39.60
2018-07-24T12:42:36.265Z,39.60
2018-07-24T12:45:04.825Z,39.50
2018-07-24T12:47:33.349Z,39.60
2018-07-24T12:50:01.794Z,39.60
2018-07-24T12:52:30.299Z,39.00
2018-07-24T12:54:58.838Z,38.70
2018-07-24T12:57:27.351Z,38.40
2018-07-24T13:02:24.113Z,38.20
2018-07-24T13:04:53.163Z,37.90
2018-07-24T13:07:21.618Z,37.60
2018-07-24T13:09:50.920Z,37.30
2018-07-24T13:12:19.550Z,37.70
2018-07-24T13:14:48.112Z,37.50
2018-07-24T13:17:16.635Z,37.40
2018-07-24T13:19:45.250Z,37.20
2018-07-24T13:22:13.880Z,37.00
2018-07-24T13:24:42.901Z,37.40
2018-07-24T13:27:12.169Z,36.70
2018-07-24T13:29:40.727Z,36.50
2018-07-24T13:32:09.295Z,36.80
2018-07-24T13:34:37.743Z,37.20
2018-07-24T13:37:06.241Z,36.70
2018-07-24T13:39:34.756Z,36.00
2018-07-24T13:42:03.257Z,36.50
2018-07-24T13:44:31.846Z,37.30
2018-07-24T13:47:00.345Z,37.10
2018-07-24T13:49:28.816Z,36.10
2018-07-24T13:51:57.381Z,36.30
2018-07-24T13:54:26.137Z,36.20
2018-07-24T13:56:54.637Z,36.30
2018-07-24T13:59:23.178Z,36.80
2018-07-24T14:01:51.799Z,37.10
2018-07-24T14:04:20.396Z,36.90
2018-07-24T14:06:48.903Z,36.50
2018-07-24T14:09:17.417Z,36.10
2018-07-24T14:11:46.035Z,35.80
2018-07-24T14:14:14.681Z,35.00
2018-07-24T14:16:43.124Z,35.20
2018-07-24T14:19:11.605Z,34.80
2018-07-24T14:24:08.427Z,35.20
2018-07-24T14:26:36.910Z,35.10
2018-07-24T14:29:05.358Z,35.00
2018-07-24T14:31:33.883Z,34.50
2018-07-24T14:34:02.424Z,34.70
2018-07-24T14:36:30.929Z,34.50
2018-07-24T14:38:59.433Z,34.40
2018-07-24T14:41:28.080Z,34.70
2018-07-24T14:43:56.675Z,34.60
2018-07-24T14:46:25.240Z,34.30
2018-07-24T14:48:53.690Z,33.20
2018-07-24T14:51:22.171Z,33.50
2018-07-24T14:53:50.670Z,33.60
2018-07-24T14:56:19.159Z,32.90
2018-07-24T14:58:47.664Z,33.10
2018-07-24T15:01:16.149Z,33.50
2018-07-24T15:03:44.824Z,33.00
2018-07-24T15:06:13.306Z,32.50
2018-07-24T15:08:41.946Z,32.50
2018-07-24T15:11:10.541Z,32.30
2018-07-24T15:13:39.117Z,32.20
2018-07-24T15:16:07.730Z,32.90
2018-07-24T15:18:36.264Z,32.80
2018-07-24T15:21:04.756Z,33.00
2018-07-24T15:23:33.330Z,32.90
2018-07-24T15:26:02.796Z,32.50
2018-07-24T15:28:31.465Z,32.70
2018-07-24T15:31:00.263Z,32.50
2018-07-24T15:33:28.877Z,32.70
2018-07-24T15:35:58.675Z,33.00
2018-07-24T15:38:27.238Z,32.60
2018-07-24T15:40:55.802Z,32.90
2018-07-24T15:43:24.490Z,32.90
2018-07-24T15:45:53.115Z,33.20
2018-07-24T15:48:21.591Z,32.80
2018-07-24T15:50:50.384Z,32.40
2018-07-24T15:53:19.108Z,32.80
2018-07-24T15:55:47.694Z,33.20
2018-07-24T15:58:16.304Z,33.20
2018-07-24T16:00:44.885Z,32.90
2018-07-24T16:03:13.542Z,31.70
2018-07-24T16:05:42.127Z,32.00
2018-07-24T16:08:10.639Z,32.40
2018-07-24T16:10:39.159Z,32.30
2018-07-24T16:13:07.746Z,32.40
2018-07-24T16:15:36.306Z,32.50
2018-07-24T16:20:33.172Z,32.00
2018-07-24T16:23:01.806Z,32.10
2018-07-24T16:25:30.332Z,31.70
2018-07-24T16:27:58.844Z,31.40
2018-07-24T16:30:27.381Z,31.50
2018-07-24T16:32:55.937Z,32.10
2018-07-24T16:35:24.450Z,32.50
2018-07-24T16:37:52.990Z,32.50
2018-07-24T16:40:21.458Z,32.30
2018-07-24T16:42:50.032Z,32.10
2018-07-24T16:45:18.515Z,32.50
2018-07-24T16:47:46.982Z,32.80
2018-07-24T16:50:15.471Z,33.20
2018-07-24T16:52:44.122Z,33.80
2018-07-24T16:55:12.669Z,34.00
2018-07-24T16:57:41.243Z,34.00
2018-07-24T17:00:09.721Z,34.10
2018-07-24T17:02:38.373Z,34.10
2018-07-24T17:05:06.915Z,34.50
2018-07-24T17:07:35.426Z,34.90
2018-07-24T17:12:32.180Z,35.50
2018-07-24T17:15:00.644Z,35.40
2018-07-24T17:17:29.122Z,35.20
2018-07-24T17:19:57.683Z,35.30
2018-07-24T17:22:26.253Z,35.40
2018-07-24T17:24:54.670Z,35.40
2018-07-24T17:27:23.216Z,35.60
2018-07-24T17:29:51.668Z,35.90
2018-07-24T17:32:20.175Z,36.70
2018-07-24T17:34:48.743Z,36.40
2018-07-24T17:37:17.316Z,36.30
2018-07-24T17:39:45.818Z,36.40
2018-07-24T17:42:14.335Z,36.40
2018-07-24T17:44:42.913Z,36.20
2018-07-24T17:47:11.563Z,36.40
2018-07-24T17:49:40.058Z,36.30
2018-07-24T17:52:08.681Z,36.50
2018-07-24T17:54:37.211Z,36.90
2018-07-24T17:57:05.954Z,37.00
2018-07-24T17:59:34.433Z,37.20
2018-07-24T18:02:02.954Z,37.20
2018-07-24T18:04:31.448Z,37.30
2018-07-24T18:06:59.942Z,37.60
2018-07-24T18:09:28.396Z,37.90
2018-07-24T18:11:56.858Z,37.80
2018-07-24T18:14:25.418Z,38.10
2018-07-24T18:16:53.894Z,38.40
2018-07-24T18:19:22.375Z,38.60
2018-07-24T18:21:50.856Z,38.60
2018-07-24T18:24:19.461Z,38.70
2018-07-24T18:26:48.355Z,38.70
2018-07-24T18:29:16.845Z,38.60
2018-07-24T18:31:45.389Z,38.60
2018-07-24T18:34:14.013Z,38.30
2018-07-24T18:36:42.544Z,38.40
2018-07-24T18:39:11.165Z,38.60
2018-07-24T18:41:39.640Z,38.70
2018-07-24T18:44:08.330Z,39.00
2018-07-24T18:49:04.955Z,39.20
2018-07-24T18:51:33.465Z,39.30
2018-07-24T18:54:02.014Z,39.30
2018-07-24T18:56:30.548Z,39.40
2018-07-24T18:58:59.051Z,39.60
2018-07-24T19:01:27.644Z,39.90
2018-07-24T19:06:24.491Z,40.60
2018-07-24T19:11:21.418Z,40.90
2018-07-24T19:13:49.998Z,40.90
2018-07-24T19:16:18.463Z,41.20
2018-07-24T19:18:46.984Z,41.40
2018-07-24T19:21:15.469Z,41.50
2018-07-24T19:25:13.222Z,41.50
2018-07-24T19:27:41.721Z,41.80
2018-07-24T19:30:10.194Z,42.00
2018-07-24T19:32:38.790Z,42.20
2018-07-24T19:35:07.303Z,42.60
2018-07-24T19:37:35.744Z,42.90
2018-07-24T19:40:04.368Z,43.30
2018-07-24T19:42:32.874Z,43.30
2018-07-24T19:47:29.648Z,44.20
2018-07-24T19:49:58.131Z,44.70
2018-07-24T19:52:26.678Z,45.20
2018-07-24T19:54:55.186Z,45.70
2018-07-24T19:57:23.670Z,46.00
2018-07-24T19:59:52.195Z,46.40
2018-07-24T20:02:20.717Z,46.80
2018-07-24T20:04:49.221Z,47.20
2018-07-24T20:07:17.722Z,47.60
2018-07-24T20:09:46.290Z,48.00
2018-07-24T20:12:14.794Z,48.30
2018-07-24T20:14:43.366Z,48.70
2018-07-24T20:17:11.867Z,48.90
2018-07-24T20:19:40.346Z,49.10
2018-07-24T20:22:08.926Z,49.20
2018-07-24T20:24:37.573Z,49.30
2018-07-24T20:27:06.257Z,49.30
2018-07-24T20:29:34.747Z,49.40
2018-07-24T20:32:03.238Z,49.80
2018-07-24T20:34:31.831Z,50.00
2018-07-24T20:37:00.299Z,50.10
2018-07-24T20:39:28.813Z,50.50
2018-07-24T20:41:57.262Z,51.30
2018-07-24T20:44:25.794Z,51.50
2018-07-24T20:46:54.239Z,51.20
2018-07-24T20:49:22.673Z,51.20
2018-07-24T20:51:51.154Z,51.50
2018-07-24T20:54:19.809Z,51.60
2018-07-24T20:56:48.338Z,51.80
2018-07-24T20:59:16.826Z,52.00
2018-07-24T21:01:45.306Z,52.10
2018-07-24T21:04:13.820Z,52.30
2018-07-24T21:06:42.310Z,52.40
2018-07-24T21:09:11.125Z,52.50
2018-07-24T21:11:40.553Z,52.70
2018-07-24T21:14:10.061Z,52.80
2018-07-24T21:16:38.610Z,53.20
2018-07-24T21:19:07.740Z,53.30
2018-07-24T21:21:36.578Z,53.60
2018-07-24T21:24:05.137Z,53.60
2018-07-24T21:26:33.626Z,53.70
2018-07-24T21:29:02.153Z,54.00
2018-07-24T21:31:30.577Z,54.20
2018-07-24T21:33:59.083Z,54.50
2018-07-24T21:36:27.652Z,54.80
2018-07-24T21:38:56.135Z,54.90
2018-07-24T21:41:24.680Z,54.90
2018-07-24T21:43:53.247Z,54.90
2018-07-24T21:46:21.722Z,55.00
2018-07-24T21:48:50.173Z,55.10
2018-07-24T21:51:18.722Z,55.30
2018-07-24T21:53:47.255Z,55.30
2018-07-24T21:56:15.773Z,55.90
2018-07-24T21:58:44.282Z,55.30
2018-07-24T22:01:13.761Z,55.20
2018-07-24T22:03:42.666Z,55.10
2018-07-24T22:06:11.166Z,55.00
2018-07-24T22:08:39.804Z,54.90
2018-07-24T22:11:08.283Z,54.90
2018-07-24T22:13:36.889Z,54.90
2018-07-24T22:16:05.442Z,54.90
2018-07-24T22:18:33.996Z,55.00
2018-07-24T22:21:02.522Z,55.20
2018-07-24T22:23:31.076Z,55.30
2018-07-24T22:25:59.587Z,55.50
2018-07-24T22:28:28.124Z,55.50
2018-07-24T22:30:56.660Z,55.80
2018-07-24T22:33:25.195Z,55.90
2018-07-24T22:35:53.805Z,55.90
2018-07-24T22:38:22.416Z,56.00
2018-07-24T22:40:50.992Z,56.20
2018-07-24T22:43:19.658Z,56.30
2018-07-24T22:45:48.153Z,56.30
2018-07-24T22:48:16.655Z,56.30
2018-07-24T22:50:45.192Z,56.30
2018-07-24T22:53:13.884Z,56.40
2018-07-24T22:55:42.448Z,56.40
2018-07-24T22:58:11.087Z,56.60
2018-07-24T23:00:39.588Z,56.70
2018-07-24T23:03:08.163Z,56.80
2018-07-24T23:05:36.942Z,56.90
2018-07-24T23:08:05.758Z,57.00
2018-07-24T23:10:34.508Z,57.00
2018-07-24T23:13:04.713Z,57.00
2018-07-24T23:15:34.254Z,57.20
2018-07-24T23:18:05.693Z,57.10
2018-07-24T23:20:34.198Z,57.20
2018-07-24T23:23:02.728Z,57.30
2018-07-24T23:25:31.218Z,57.40
2018-07-24T23:27:59.683Z,57.50
2018-07-24T23:30:28.207Z,57.60
2018-07-24T23:32:56.752Z,57.70
2018-07-24T23:35:26.182Z,57.70
2018-07-24T23:37:55.168Z,57.70
2018-07-24T23:40:23.649Z,57.70
2018-07-24T23:42:52.255Z,57.90
2018-07-24T23:45:20.801Z,58.00
2018-07-24T23:47:49.314Z,58.10
2018-07-24T23:50:17.795Z,58.10
2018-07-24T23:52:46.359Z,58.20
2018-07-24T23:55:14.952Z,58.20
2018-07-24T23:57:43.438Z,58.50
